sensor_id;sensor_type;location;lat;lon;timestamp;pressure;altitude;pressure_sealevel;temperature;humidity
12360;BME280;6244;51.460;7.090;2022-09-29T00:00:33;96374.38;;;3.44;81.52
12360;BME280;6244;51.460;7.090;2022-09-29T00:05:31;96373.28;;;3.35;81.65
12360;BME280;6244;51.460;7.090;2022-09-29T00:10:28;96377.03;;;3.31;81.76
12360;BME280;6244;51.460;7.090;2022-09-29T00:15:24;96384.16;;;3.28;81.89
12360;BME280;6244;51.460;7.090;2022-09-29T00:20:21;96380.75;;;3.27;81.67
12360;BME280;6244;51.460;7.090;2022-09-29T00:25:19;96375.00;;;3.11;81.89
12360;BME280;6244;51.460;7.090;2022-09-29T00:30:15;96374.25;;;3.22;81.78
12360;BME280;6244;51.460;7.090;2022-09-29T00:35:12;96376.19;;;3.31;81.93
12360;BME280;6244;51.460;7.090;2022-09-29T00:40:11;96385.38;;;3.35;82.07
12360;BME280;6244;51.460;7.090;2022-09-29T00:45:16;96372.44;;;3.47;81.83
12360;BME280;6244;51.460;7.090;2022-09-29T00:50:17;96376.00;;;3.57;81.88
12360;BME280;6244;51.460;7.090;2022-09-29T00:55:17;96379.66;;;3.55;81.80
12360;BME280;6244;51.460;7.090;2022-09-29T01:00:16;96387.41;;;3.55;81.96
12360;BME280;6244;51.460;7.090;2022-09-29T01:05:15;96372.94;;;3.52;81.69
12360;BME280;6244;51.460;7.090;2022-09-29T01:10:16;96374.28;;;3.45;81.77
12360;BME280;6244;51.460;7.090;2022-09-29T01:15:18;96367.47;;;3.44;81.80
12360;BME280;6244;51.460;7.090;2022-09-29T01:20:17;96378.88;;;3.42;81.77
12360;BME280;6244;51.460;7.090;2022-09-29T01:25:31;96377.19;;;3.41;81.80
12360;BME280;6244;51.460;7.090;2022-09-29T01:30:46;96380.84;;;3.38;81.76
12360;BME280;6244;51.460;7.090;2022-09-29T01:35:51;96377.03;;;3.31;81.67
12360;BME280;6244;51.460;7.090;2022-09-29T01:40:55;96377.47;;;3.25;81.71
12360;BME280;6244;51.460;7.090;2022-09-29T01:46:01;96376.31;;;3.17;81.72
12360;BME280;6244;51.460;7.090;2022-09-29T01:51:02;96384.81;;;3.19;81.82
12360;BME280;6244;51.460;7.090;2022-09-29T01:56:02;96385.53;;;3.21;81.88
12360;BME280;6244;51.460;7.090;2022-09-29T02:01:06;96383.75;;;3.21;81.93
12360;BME280;6244;51.460;7.090;2022-09-29T02:06:09;96380.69;;;3.16;81.88
12360;BME280;6244;51.460;7.090;2022-09-29T02:11:09;96380.78;;;3.15;82.12
12360;BME280;6244;51.460;7.090;2022-09-29T02:16:10;96375.00;;;3.11;81.85
12360;BME280;6244;51.460;7.090;2022-09-29T02:21:07;96382.63;;;3.13;82.04
12360;BME280;6244;51.460;7.090;2022-09-29T02:26:04;96380.59;;;3.05;81.96
12360;BME280;6244;51.460;7.090;2022-09-29T02:31:01;96378.63;;;2.96;82.03
12360;BME280;6244;51.460;7.090;2022-09-29T02:36:08;96382.34;;;2.92;82.18
12360;BME280;6244;51.460;7.090;2022-09-29T02:41:29;96374.28;;;2.84;82.14
12360;BME280;6244;51.460;7.090;2022-09-29T02:46:41;96379.34;;;2.86;82.16
12360;BME280;6244;51.460;7.090;2022-09-29T02:51:45;96373.47;;;2.84;82.29
12360;BME280;6244;51.460;7.090;2022-09-29T02:56:48;96384.09;;;2.79;82.11
12360;BME280;6244;51.460;7.090;2022-09-29T03:01:51;96378.31;;;2.76;82.08
12360;BME280;6244;51.460;7.090;2022-09-29T03:06:50;96379.47;;;2.84;82.03
12360;BME280;6244;51.460;7.090;2022-09-29T03:11:47;96383.06;;;2.82;82.16
12360;BME280;6244;51.460;7.090;2022-09-29T03:16:44;96381.31;;;2.82;82.22
12360;BME280;6244;51.460;7.090;2022-09-29T03:21:40;96378.09;;;2.79;82.40
12360;BME280;6244;51.460;7.090;2022-09-29T03:26:38;96369.75;;;2.75;82.37
12360;BME280;6244;51.460;7.090;2022-09-29T03:31:34;96373.44;;;2.71;82.19
12360;BME280;6244;51.460;7.090;2022-09-29T03:36:31;96367.38;;;2.72;82.30
12360;BME280;6244;51.460;7.090;2022-09-29T03:41:27;96365.50;;;2.74;82.39
12360;BME280;6244;51.460;7.090;2022-09-29T03:46:25;96363.31;;;2.68;82.44
12360;BME280;6244;51.460;7.090;2022-09-29T03:51:22;96366.84;;;2.67;82.58
12360;BME280;6244;51.460;7.090;2022-09-29T03:56:18;96367.16;;;2.63;82.25
12360;BME280;6244;51.460;7.090;2022-09-29T04:01:15;96369.31;;;2.56;82.44
12360;BME280;6244;51.460;7.090;2022-09-29T04:06:13;96368.72;;;2.53;82.37
12360;BME280;6244;51.460;7.090;2022-09-29T04:11:09;96378.50;;;2.48;82.42
12360;BME280;6244;51.460;7.090;2022-09-29T04:16:06;96373.34;;;2.48;82.24
12360;BME280;6244;51.460;7.090;2022-09-29T04:21:04;96376.88;;;2.47;82.44
12360;BME280;6244;51.460;7.090;2022-09-29T04:26:03;96383.47;;;2.38;82.20
12360;BME280;6244;51.460;7.090;2022-09-29T04:30:59;96385.22;;;2.38;82.35
12360;BME280;6244;51.460;7.090;2022-09-29T04:35:56;96388.41;;;2.41;82.41
12360;BME280;6244;51.460;7.090;2022-09-29T04:40:53;96388.91;;;2.34;82.27
12360;BME280;6244;51.460;7.090;2022-09-29T04:45:51;96391.50;;;2.34;82.38
12360;BME280;6244;51.460;7.090;2022-09-29T04:50:47;96384.69;;;2.33;82.34
12360;BME280;6244;51.460;7.090;2022-09-29T04:55:45;96386.75;;;2.28;82.36
12360;BME280;6244;51.460;7.090;2022-09-29T05:00:42;96391.31;;;2.24;82.45
12360;BME280;6244;51.460;7.090;2022-09-29T05:05:40;96391.66;;;2.18;82.58
12360;BME280;6244;51.460;7.090;2022-09-29T05:10:36;96397.78;;;2.17;82.52
12360;BME280;6244;51.460;7.090;2022-09-29T05:15:33;96396.94;;;2.17;82.71
12360;BME280;6244;51.460;7.090;2022-09-29T05:20:29;96404.06;;;2.13;82.50
12360;BME280;6244;51.460;7.090;2022-09-29T05:25:27;96407.66;;;2.11;82.64
12360;BME280;6244;51.460;7.090;2022-09-29T05:30:24;96404.66;;;2.04;82.48
12360;BME280;6244;51.460;7.090;2022-09-29T05:35:20;96410.63;;;2.05;82.62
12360;BME280;6244;51.460;7.090;2022-09-29T05:40:17;96417.47;;;2.06;82.49
12360;BME280;6244;51.460;7.090;2022-09-29T05:45:16;96417.09;;;2.12;82.61
12360;BME280;6244;51.460;7.090;2022-09-29T05:50:13;96422.94;;;2.14;82.53
12360;BME280;6244;51.460;7.090;2022-09-29T05:55:09;96427.91;;;2.17;82.59
12360;BME280;6244;51.460;7.090;2022-09-29T06:00:07;96426.72;;;2.22;82.68
12360;BME280;6244;51.460;7.090;2022-09-29T06:05:05;96432.94;;;2.32;82.56
12360;BME280;6244;51.460;7.090;2022-09-29T06:10:02;96434.41;;;2.36;82.38
12360;BME280;6244;51.460;7.090;2022-09-29T06:14:59;96443.50;;;2.42;82.69
12360;BME280;6244;51.460;7.090;2022-09-29T06:19:55;96439.38;;;2.52;82.61
12360;BME280;6244;51.460;7.090;2022-09-29T06:24:53;96446.13;;;2.67;82.47
12360;BME280;6244;51.460;7.090;2022-09-29T06:29:50;96458.31;;;2.77;82.61
12360;BME280;6244;51.460;7.090;2022-09-29T06:34:46;96459.81;;;2.94;82.48
12360;BME280;6244;51.460;7.090;2022-09-29T06:40:03;96466.94;;;3.15;82.35
12360;BME280;6244;51.460;7.090;2022-09-29T06:45:00;96468.78;;;3.26;82.25
12360;BME280;6244;51.460;7.090;2022-09-29T06:49:56;96477.50;;;3.37;82.41
12360;BME280;6244;51.460;7.090;2022-09-29T06:54:55;96484.91;;;3.54;82.17
12360;BME280;6244;51.460;7.090;2022-09-29T06:59:55;96503.41;;;3.86;81.93
12360;BME280;6244;51.460;7.090;2022-09-29T07:04:52;96502.38;;;4.12;81.71
12360;BME280;6244;51.460;7.090;2022-09-29T07:09:48;96510.47;;;4.44;81.22
12360;BME280;6244;51.460;7.090;2022-09-29T07:14:44;96524.50;;;4.76;80.68
12360;BME280;6244;51.460;7.090;2022-09-29T07:19:42;96531.38;;;5.11;80.18
12360;BME280;6244;51.460;7.090;2022-09-29T07:24:39;96545.94;;;5.36;79.33
12360;BME280;6244;51.460;7.090;2022-09-29T07:29:37;96560.56;;;5.94;78.13
12360;BME280;6244;51.460;7.090;2022-09-29T07:34:33;96576.00;;;6.93;75.16
12360;BME280;6244;51.460;7.090;2022-09-29T07:39:31;96616.34;;;9.77;70.52
12360;BME280;6244;51.460;7.090;2022-09-29T07:44:28;96643.06;;;9.52;70.62
12360;BME280;6244;51.460;7.090;2022-09-29T07:49:26;96645.06;;;8.91;68.87
12360;BME280;6244;51.460;7.090;2022-09-29T07:54:23;96640.16;;;8.58;68.63
12360;BME280;6244;51.460;7.090;2022-09-29T07:59:21;96639.22;;;8.29;67.94
12360;BME280;6244;51.460;7.090;2022-09-29T08:04:17;96648.13;;;8.57;67.88
12360;BME280;6244;51.460;7.090;2022-09-29T08:09:14;96678.22;;;11.69;72.78
12360;BME280;6244;51.460;7.090;2022-09-29T08:14:11;96732.84;;;15.45;81.56
12360;BME280;6244;51.460;7.090;2022-09-29T08:19:08;96773.31;;;18.27;62.22
12360;BME280;6244;51.460;7.090;2022-09-29T08:24:05;96784.03;;;18.75;56.43
12360;BME280;6244;51.460;7.090;2022-09-29T08:29:02;96806.09;;;20.53;51.55
12360;BME280;6244;51.460;7.090;2022-09-29T08:33:58;96803.28;;;19.66;47.36
12360;BME280;6244;51.460;7.090;2022-09-29T08:38:57;96814.50;;;20.56;46.60
12360;BME280;6244;51.460;7.090;2022-09-29T08:43:57;96826.00;;;20.89;44.13
12360;BME280;6244;51.460;7.090;2022-09-29T08:48:55;96827.09;;;20.28;43.61
12360;BME280;6244;51.460;7.090;2022-09-29T08:53:57;96820.25;;;18.12;49.79
12360;BME280;6244;51.460;7.090;2022-09-29T08:58:55;96816.34;;;19.06;48.03
12360;BME280;6244;51.460;7.090;2022-09-29T09:04:00;96824.56;;;19.11;47.66
12360;BME280;6244;51.460;7.090;2022-09-29T09:14:32;96843.66;;;20.17;45.61
12360;BME280;6244;51.460;7.090;2022-09-29T09:19:56;96845.72;;;20.95;42.25
12360;BME280;6244;51.460;7.090;2022-09-29T09:25:00;96850.69;;;19.97;43.67
12360;BME280;6244;51.460;7.090;2022-09-29T09:30:05;96872.69;;;22.60;38.87
12360;BME280;6244;51.460;7.090;2022-09-29T09:35:14;96875.44;;;23.47;35.77
12360;BME280;6244;51.460;7.090;2022-09-29T09:40:19;96873.81;;;22.83;39.25
12360;BME280;6244;51.460;7.090;2022-09-29T09:45:26;96874.91;;;22.76;35.63
12360;BME280;6244;51.460;7.090;2022-09-29T09:50:24;96871.34;;;21.74;36.90
12360;BME280;6244;51.460;7.090;2022-09-29T09:55:24;96866.38;;;21.71;36.65
12360;BME280;6244;51.460;7.090;2022-09-29T10:00:23;96874.22;;;21.79;36.89
12360;BME280;6244;51.460;7.090;2022-09-29T10:05:22;96870.50;;;21.80;39.40
12360;BME280;6244;51.460;7.090;2022-09-29T10:10:23;96892.31;;;24.68;34.14
12360;BME280;6244;51.460;7.090;2022-09-29T10:15:22;96912.47;;;26.06;31.81
12360;BME280;6244;51.460;7.090;2022-09-29T10:20:31;96906.44;;;25.46;31.34
12360;BME280;6244;51.460;7.090;2022-09-29T10:25:29;96889.59;;;23.54;35.02
12360;BME280;6244;51.460;7.090;2022-09-29T10:30:33;96887.59;;;22.30;34.94
12360;BME280;6244;51.460;7.090;2022-09-29T10:35:32;96878.41;;;20.76;35.65
12360;BME280;6244;51.460;7.090;2022-09-29T10:40:32;96862.53;;;18.49;42.93
12360;BME280;6244;51.460;7.090;2022-09-29T10:45:46;96857.16;;;17.77;43.88
12360;BME280;6244;51.460;7.090;2022-09-29T10:50:50;96839.13;;;15.15;57.10
12360;BME280;6244;51.460;7.090;2022-09-29T10:55:52;96826.25;;;13.41;67.50
12360;BME280;6244;51.460;7.090;2022-09-29T11:01:02;96827.22;;;15.19;68.22
12360;BME280;6244;51.460;7.090;2022-09-29T11:06:03;96844.75;;;14.80;60.46
12360;BME280;6244;51.460;7.090;2022-09-29T11:11:05;96863.81;;;17.44;47.18
12360;BME280;6244;51.460;7.090;2022-09-29T11:16:03;96843.66;;;14.17;57.68
12360;BME280;6244;51.460;7.090;2022-09-29T11:21:12;96833.63;;;13.29;66.73
12360;BME280;6244;51.460;7.090;2022-09-29T11:26:22;96838.22;;;12.66;68.90
12360;BME280;6244;51.460;7.090;2022-09-29T11:31:49;96836.50;;;12.05;68.70
12360;BME280;6244;51.460;7.090;2022-09-29T11:36:55;96833.09;;;11.77;69.52
12360;BME280;6244;51.460;7.090;2022-09-29T11:42:12;96830.41;;;11.60;70.49
12360;BME280;6244;51.460;7.090;2022-09-29T11:47:25;96852.66;;;14.96;63.69
12360;BME280;6244;51.460;7.090;2022-09-29T11:57:58;96857.53;;;13.77;59.25
12360;BME280;6244;51.460;7.090;2022-09-29T12:03:15;96849.00;;;12.20;67.97
12360;BME280;6244;51.460;7.090;2022-09-29T12:08:23;96854.88;;;14.19;66.53
12360;BME280;6244;51.460;7.090;2022-09-29T12:13:29;96862.03;;;14.91;54.50
12360;BME280;6244;51.460;7.090;2022-09-29T12:18:34;96842.16;;;13.06;66.28
12360;BME280;6244;51.460;7.090;2022-09-29T12:23:35;96858.25;;;15.80;60.67
12360;BME280;6244;51.460;7.090;2022-09-29T12:28:40;96866.97;;;16.58;49.91
12360;BME280;6244;51.460;7.090;2022-09-29T12:33:40;96864.34;;;14.62;55.06
12360;BME280;6244;51.460;7.090;2022-09-29T12:38:41;96846.66;;;12.96;59.21
12360;BME280;6244;51.460;7.090;2022-09-29T12:43:47;96845.22;;;12.23;65.13
12360;BME280;6244;51.460;7.090;2022-09-29T12:48:51;96843.38;;;13.11;65.46
12360;BME280;6244;51.460;7.090;2022-09-29T12:54:01;96846.44;;;12.89;64.67
12360;BME280;6244;51.460;7.090;2022-09-29T12:59:03;96847.41;;;13.06;68.88
12360;BME280;6244;51.460;7.090;2022-09-29T13:09:57;96856.94;;;14.65;63.12
12360;BME280;6244;51.460;7.090;2022-09-29T13:15:24;96862.09;;;15.77;58.34
12360;BME280;6244;51.460;7.090;2022-09-29T13:26:01;96874.16;;;16.49;48.40
12360;BME280;6244;51.460;7.090;2022-09-29T13:31:04;96875.31;;;16.47;53.39
12360;BME280;6244;51.460;7.090;2022-09-29T13:36:03;96871.38;;;15.57;52.19
12360;BME280;6244;51.460;7.090;2022-09-29T13:41:23;96863.22;;;14.96;62.19
12360;BME280;6244;51.460;7.090;2022-09-29T13:46:36;96864.97;;;15.36;54.02
12360;BME280;6244;51.460;7.090;2022-09-29T13:51:46;96867.63;;;13.90;53.75
12360;BME280;6244;51.460;7.090;2022-09-29T13:56:46;96860.22;;;13.01;56.20
12360;BME280;6244;51.460;7.090;2022-09-29T14:01:44;96866.97;;;12.68;64.74
12360;BME280;6244;51.460;7.090;2022-09-29T14:06:45;96861.66;;;12.42;63.56
12360;BME280;6244;51.460;7.090;2022-09-29T14:11:46;96862.78;;;11.78;66.95
12360;BME280;6244;51.460;7.090;2022-09-29T14:16:49;96859.84;;;11.44;68.28
12360;BME280;6244;51.460;7.090;2022-09-29T14:21:52;96855.78;;;11.23;69.03
12360;BME280;6244;51.460;7.090;2022-09-29T14:26:50;96861.66;;;11.07;63.57
12360;BME280;6244;51.460;7.090;2022-09-29T14:31:53;96859.84;;;10.98;57.88
12360;BME280;6244;51.460;7.090;2022-09-29T14:36:52;96860.13;;;10.95;59.34
12360;BME280;6244;51.460;7.090;2022-09-29T14:41:49;96871.69;;;12.12;70.26
12360;BME280;6244;51.460;7.090;2022-09-29T14:47:03;96892.03;;;13.41;71.29
12360;BME280;6244;51.460;7.090;2022-09-29T14:52:30;96903.47;;;14.24;67.87
12360;BME280;6244;51.460;7.090;2022-09-29T14:57:45;96910.94;;;14.53;66.66
12360;BME280;6244;51.460;7.090;2022-09-29T15:02:50;96911.00;;;14.69;62.01
12360;BME280;6244;51.460;7.090;2022-09-29T15:07:47;96922.16;;;14.63;55.72
12360;BME280;6244;51.460;7.090;2022-09-29T15:12:44;96915.56;;;14.43;61.19
12360;BME280;6244;51.460;7.090;2022-09-29T15:17:51;96911.94;;;14.10;58.71
12360;BME280;6244;51.460;7.090;2022-09-29T15:28:13;96909.72;;;13.56;67.47
12360;BME280;6244;51.460;7.090;2022-09-29T15:33:19;96917.44;;;13.83;64.48
12360;BME280;6244;51.460;7.090;2022-09-29T15:38:26;96914.09;;;14.07;63.59
12360;BME280;6244;51.460;7.090;2022-09-29T15:43:28;96918.69;;;14.05;59.72
12360;BME280;6244;51.460;7.090;2022-09-29T15:48:29;96920.53;;;13.79;59.41
12360;BME280;6244;51.460;7.090;2022-09-29T15:53:26;96917.84;;;13.37;64.65
12360;BME280;6244;51.460;7.090;2022-09-29T15:58:42;96924.41;;;13.16;61.42
12360;BME280;6244;51.460;7.090;2022-09-29T16:03:43;96927.28;;;13.05;64.89
12360;BME280;6244;51.460;7.090;2022-09-29T16:08:44;96934.41;;;12.95;63.98
12360;BME280;6244;51.460;7.090;2022-09-29T16:13:47;96941.72;;;12.56;66.53
12360;BME280;6244;51.460;7.090;2022-09-29T16:18:49;96940.75;;;12.39;69.28
12360;BME280;6244;51.460;7.090;2022-09-29T16:23:49;96948.69;;;12.03;68.34
12360;BME280;6244;51.460;7.090;2022-09-29T16:29:05;96952.00;;;11.68;68.72
12360;BME280;6244;51.460;7.090;2022-09-29T16:34:30;96957.72;;;11.35;66.62
12360;BME280;6244;51.460;7.090;2022-09-29T16:39:29;96962.56;;;10.92;64.25
12360;BME280;6244;51.460;7.090;2022-09-29T16:44:28;96959.81;;;10.46;56.78
12360;BME280;6244;51.460;7.090;2022-09-29T16:49:29;96953.50;;;10.09;54.21
12360;BME280;6244;51.460;7.090;2022-09-29T16:54:30;96953.97;;;9.84;53.78
12360;BME280;6244;51.460;7.090;2022-09-29T16:59:27;96952.88;;;9.56;53.95
12360;BME280;6244;51.460;7.090;2022-09-29T17:04:24;96958.19;;;9.25;54.35
12360;BME280;6244;51.460;7.090;2022-09-29T17:09:23;96962.78;;;8.91;54.33
12360;BME280;6244;51.460;7.090;2022-09-29T17:14:20;96964.06;;;8.65;55.17
12360;BME280;6244;51.460;7.090;2022-09-29T17:19:17;96963.91;;;8.46;56.45
12360;BME280;6244;51.460;7.090;2022-09-29T17:24:14;96961.41;;;8.44;58.50
12360;BME280;6244;51.460;7.090;2022-09-29T17:29:12;96970.78;;;8.47;60.69
12360;BME280;6244;51.460;7.090;2022-09-29T17:34:09;96972.09;;;8.41;61.32
12360;BME280;6244;51.460;7.090;2022-09-29T17:39:05;96973.88;;;8.41;62.05
12360;BME280;6244;51.460;7.090;2022-09-29T17:44:02;96980.06;;;8.29;62.19
12360;BME280;6244;51.460;7.090;2022-09-29T17:49:08;96985.66;;;8.02;62.18
12360;BME280;6244;51.460;7.090;2022-09-29T17:54:06;96989.09;;;7.92;62.43
12360;BME280;6244;51.460;7.090;2022-09-29T17:59:03;96995.75;;;7.74;62.77
12360;BME280;6244;51.460;7.090;2022-09-29T18:04:00;97004.03;;;7.57;62.70
12360;BME280;6244;51.460;7.090;2022-09-29T18:08:58;97001.75;;;7.41;62.85
12360;BME280;6244;51.460;7.090;2022-09-29T18:13:55;97006.22;;;7.28;63.52
12360;BME280;6244;51.460;7.090;2022-09-29T18:18:51;97014.59;;;7.20;63.74
12360;BME280;6244;51.460;7.090;2022-09-29T18:23:48;97017.22;;;7.31;64.07
12360;BME280;6244;51.460;7.090;2022-09-29T18:28:46;97021.84;;;7.28;64.56
12360;BME280;6244;51.460;7.090;2022-09-29T18:33:45;97028.19;;;7.13;64.77
12360;BME280;6244;51.460;7.090;2022-09-29T18:38:42;97033.47;;;7.00;65.40
12360;BME280;6244;51.460;7.090;2022-09-29T18:43:38;97035.84;;;7.03;65.95
12360;BME280;6244;51.460;7.090;2022-09-29T18:48:36;97046.94;;;6.94;66.33
12360;BME280;6244;51.460;7.090;2022-09-29T18:53:33;97052.06;;;6.72;66.92
12360;BME280;6244;51.460;7.090;2022-09-29T18:58:30;97050.00;;;6.65;67.73
12360;BME280;6244;51.460;7.090;2022-09-29T19:03:27;97051.75;;;6.64;68.19
12360;BME280;6244;51.460;7.090;2022-09-29T19:08:25;97060.53;;;6.63;68.06
12360;BME280;6244;51.460;7.090;2022-09-29T19:13:22;97064.69;;;6.53;68.28
12360;BME280;6244;51.460;7.090;2022-09-29T19:18:20;97062.44;;;6.36;68.72
12360;BME280;6244;51.460;7.090;2022-09-29T19:23:17;97070.56;;;6.44;69.14
12360;BME280;6244;51.460;7.090;2022-09-29T19:28:17;97068.72;;;6.34;68.98
12360;BME280;6244;51.460;7.090;2022-09-29T19:33:17;97077.16;;;6.25;69.06
12360;BME280;6244;51.460;7.090;2022-09-29T19:38:14;97082.34;;;6.25;69.27
12360;BME280;6244;51.460;7.090;2022-09-29T19:43:11;97086.53;;;6.15;69.38
12360;BME280;6244;51.460;7.090;2022-09-29T19:48:14;97091.53;;;5.93;70.01
12360;BME280;6244;51.460;7.090;2022-09-29T19:53:11;97098.41;;;5.94;70.30
12360;BME280;6244;51.460;7.090;2022-09-29T19:58:08;97100.69;;;5.86;70.14
12360;BME280;6244;51.460;7.090;2022-09-29T20:03:04;97107.75;;;5.84;70.47
12360;BME280;6244;51.460;7.090;2022-09-29T20:08:02;97112.53;;;5.90;70.54
12360;BME280;6244;51.460;7.090;2022-09-29T20:12:59;97115.09;;;5.77;70.56
12360;BME280;6244;51.460;7.090;2022-09-29T20:17:57;97114.91;;;5.68;70.71
12360;BME280;6244;51.460;7.090;2022-09-29T20:22:54;97125.59;;;5.63;70.67
12360;BME280;6244;51.460;7.090;2022-09-29T20:27:52;97129.09;;;5.62;70.75
12360;BME280;6244;51.460;7.090;2022-09-29T20:32:49;97135.00;;;5.51;70.94
12360;BME280;6244;51.460;7.090;2022-09-29T20:37:46;97136.66;;;5.40;71.31
12360;BME280;6244;51.460;7.090;2022-09-29T20:42:43;97133.03;;;5.42;71.37
12360;BME280;6244;51.460;7.090;2022-09-29T20:47:41;97143.59;;;5.39;71.25
12360;BME280;6244;51.460;7.090;2022-09-29T20:52:38;97149.31;;;5.32;71.42
12360;BME280;6244;51.460;7.090;2022-09-29T20:57:34;97150.97;;;5.33;71.49
12360;BME280;6244;51.460;7.090;2022-09-29T21:02:33;97152.19;;;5.27;71.33
12360;BME280;6244;51.460;7.090;2022-09-29T21:07:33;97157.47;;;5.26;71.45
12360;BME280;6244;51.460;7.090;2022-09-29T21:12:34;97168.38;;;5.18;71.48
12360;BME280;6244;51.460;7.090;2022-09-29T21:17:31;97171.91;;;5.17;71.38
12360;BME280;6244;51.460;7.090;2022-09-29T21:22:28;97169.50;;;5.14;71.76
12360;BME280;6244;51.460;7.090;2022-09-29T21:27:25;97173.69;;;5.03;71.62
12360;BME280;6244;51.460;7.090;2022-09-29T21:32:23;97175.31;;;4.91;71.99
12360;BME280;6244;51.460;7.090;2022-09-29T21:37:19;97178.47;;;4.82;71.97
12360;BME280;6244;51.460;7.090;2022-09-29T21:42:16;97181.38;;;4.78;72.14
12360;BME280;6244;51.460;7.090;2022-09-29T21:47:14;97173.88;;;4.73;72.30
12360;BME280;6244;51.460;7.090;2022-09-29T21:52:10;97178.41;;;4.70;72.14
12360;BME280;6244;51.460;7.090;2022-09-29T21:57:07;97184.44;;;4.56;72.61
12360;BME280;6244;51.460;7.090;2022-09-29T22:02:04;97186.31;;;4.54;72.79
12360;BME280;6244;51.460;7.090;2022-09-29T22:07:02;97184.91;;;4.49;72.64
12360;BME280;6244;51.460;7.090;2022-09-29T22:11:59;97191.13;;;4.46;72.42
12360;BME280;6244;51.460;7.090;2022-09-29T22:16:56;97186.41;;;4.39;72.61
12360;BME280;6244;51.460;7.090;2022-09-29T22:21:53;97184.19;;;4.33;72.68
12360;BME280;6244;51.460;7.090;2022-09-29T22:26:51;97185.38;;;4.27;72.87
12360;BME280;6244;51.460;7.090;2022-09-29T22:31:47;97188.72;;;4.29;72.95
12360;BME280;6244;51.460;7.090;2022-09-29T22:36:44;97187.97;;;4.27;72.91
12360;BME280;6244;51.460;7.090;2022-09-29T22:41:41;97204.81;;;4.20;72.89
12360;BME280;6244;51.460;7.090;2022-09-29T22:46:39;97202.91;;;4.24;72.33
12360;BME280;6244;51.460;7.090;2022-09-29T22:51:35;97202.41;;;4.17;72.33
12360;BME280;6244;51.460;7.090;2022-09-29T22:56:32;97198.16;;;4.16;72.87
12360;BME280;6244;51.460;7.090;2022-09-29T23:01:28;97201.31;;;4.07;72.62
12360;BME280;6244;51.460;7.090;2022-09-29T23:06:26;97194.63;;;4.03;72.75
12360;BME280;6244;51.460;7.090;2022-09-29T23:11:23;97186.69;;;3.92;72.70
12360;BME280;6244;51.460;7.090;2022-09-29T23:16:19;97187.84;;;3.87;72.99
12360;BME280;6244;51.460;7.090;2022-09-29T23:21:16;97205.06;;;3.88;73.06
12360;BME280;6244;51.460;7.090;2022-09-29T23:26:15;97206.72;;;3.89;72.60
12360;BME280;6244;51.460;7.090;2022-09-29T23:31:11;97211.06;;;3.88;72.39
12360;BME280;6244;51.460;7.090;2022-09-29T23:36:10;97206.25;;;3.82;72.86
12360;BME280;6244;51.460;7.090;2022-09-29T23:41:09;97207.03;;;3.68;72.57
12360;BME280;6244;51.460;7.090;2022-09-29T23:46:07;97207.00;;;3.54;73.32
12360;BME280;6244;51.460;7.090;2022-09-29T23:51:04;97203.66;;;3.68;73.17
12360;BME280;6244;51.460;7.090;2022-09-29T23:56:03;97203.78;;;3.65;73.04
